createdAt,value
2019-02-24T00:00:12.550Z,1026.61
2019-02-24T00:01:12.410Z,1026.65
2019-02-24T00:02:12.439Z,1026.60
2019-02-24T00:03:12.391Z,1026.68
2019-02-24T00:04:12.389Z,1026.70
2019-02-24T00:05:12.364Z,1026.72
2019-02-24T00:06:12.359Z,1026.70
2019-02-24T00:07:12.350Z,1026.71
2019-02-24T00:08:12.357Z,1026.66
2019-02-24T00:09:12.321Z,1026.68
2019-02-24T00:10:12.544Z,1026.74
2019-02-24T00:11:12.307Z,1026.71
2019-02-24T00:12:12.309Z,1026.74
2019-02-24T00:13:12.283Z,1026.74
2019-02-24T00:14:12.273Z,1026.82
2019-02-24T00:15:12.260Z,1026.84
2019-02-24T00:16:12.253Z,1026.82
2019-02-24T00:17:12.551Z,1026.84
2019-02-24T00:18:12.235Z,1026.87
2019-02-24T00:19:12.284Z,1026.83
2019-02-24T00:20:12.220Z,1026.88
2019-02-24T00:21:12.227Z,1026.85
2019-02-24T00:22:12.188Z,1026.86
2019-02-24T00:23:12.222Z,1026.89
2019-02-24T00:24:12.556Z,1026.89
2019-02-24T00:25:12.156Z,1026.91
2019-02-24T00:26:12.140Z,1026.87
2019-02-24T00:27:12.126Z,1026.93
2019-02-24T00:28:12.122Z,1026.90
2019-02-24T00:29:12.145Z,1026.90
2019-02-24T00:30:12.099Z,1026.92
2019-02-24T00:31:12.122Z,1026.88
2019-02-24T00:32:12.080Z,1026.92
2019-02-24T00:33:12.070Z,1026.87
2019-02-24T00:34:12.062Z,1026.88
2019-02-24T00:35:12.048Z,1026.87
2019-02-24T00:36:12.066Z,1026.93
2019-02-24T00:37:12.023Z,1026.93
2019-02-24T00:38:12.022Z,1026.85
2019-02-24T00:39:11.999Z,1026.97
2019-02-24T00:40:11.986Z,1026.94
2019-02-24T00:41:12.006Z,1026.91
2019-02-24T00:42:11.971Z,1026.88
2019-02-24T00:43:11.950Z,1026.85
2019-02-24T00:44:11.960Z,1026.80
2019-02-24T00:45:11.938Z,1026.82
2019-02-24T00:46:11.970Z,1026.85
2019-02-24T00:47:11.957Z,1026.87
2019-02-24T00:48:11.909Z,1026.80
2019-02-24T00:49:11.907Z,1026.82
2019-02-24T00:50:11.894Z,1026.80
2019-02-24T00:51:11.883Z,1026.78
2019-02-24T00:52:11.879Z,1026.77
2019-02-24T00:53:11.939Z,1026.84
2019-02-24T00:54:11.835Z,1026.76
2019-02-24T00:55:11.826Z,1026.79
2019-02-24T00:56:11.823Z,1026.75
2019-02-24T00:57:11.800Z,1026.73
2019-02-24T00:58:16.139Z,1026.72
2019-02-24T00:59:11.785Z,1026.69
2019-02-24T01:00:11.773Z,1026.67
2019-02-24T01:01:11.767Z,1026.65
2019-02-24T01:02:11.779Z,1026.62
2019-02-24T01:03:11.743Z,1026.58
2019-02-24T01:04:12.064Z,1026.61
2019-02-24T01:05:11.722Z,1026.64
2019-02-24T01:06:11.715Z,1026.60
2019-02-24T01:07:11.723Z,1026.58
2019-02-24T01:08:11.685Z,1026.60
2019-02-24T01:09:11.705Z,1026.56
2019-02-24T01:10:11.692Z,1026.56
2019-02-24T01:11:11.665Z,1026.59
2019-02-24T01:12:11.651Z,1026.50
2019-02-24T01:13:11.636Z,1026.58
2019-02-24T01:14:11.632Z,1026.55
2019-02-24T01:15:11.646Z,1026.58
2019-02-24T01:16:11.614Z,1026.58
2019-02-24T01:17:11.584Z,1026.62
2019-02-24T01:18:11.582Z,1026.63
2019-02-24T01:19:11.573Z,1026.69
2019-02-24T01:20:11.564Z,1026.66
2019-02-24T01:21:11.576Z,1026.60
2019-02-24T01:22:11.535Z,1026.67
2019-02-24T01:23:11.532Z,1026.68
2019-02-24T01:24:11.515Z,1026.68
2019-02-24T01:25:11.499Z,1026.72
2019-02-24T01:26:11.564Z,1026.66
2019-02-24T01:27:11.482Z,1026.65
2019-02-24T01:28:11.469Z,1026.64
2019-02-24T01:29:11.478Z,1026.63
2019-02-24T01:30:11.461Z,1026.59
2019-02-24T01:31:11.453Z,1026.53
2019-02-24T01:32:12.045Z,1026.53
2019-02-24T01:33:11.430Z,1026.55
2019-02-24T01:34:11.402Z,1026.50
2019-02-24T01:35:11.409Z,1026.52
2019-02-24T01:36:11.548Z,1026.49
2019-02-24T01:37:11.385Z,1026.51
2019-02-24T01:38:11.382Z,1026.51
2019-02-24T01:39:11.356Z,1026.48
2019-02-24T01:40:11.342Z,1026.48
2019-02-24T01:41:11.557Z,1026.49
2019-02-24T01:42:11.322Z,1026.51
2019-02-24T01:43:11.320Z,1026.51
2019-02-24T01:44:11.299Z,1026.50
2019-02-24T01:45:11.293Z,1026.51
2019-02-24T01:46:11.309Z,1026.48
2019-02-24T01:47:11.278Z,1026.55
2019-02-24T01:48:11.271Z,1026.49
2019-02-24T01:49:11.573Z,1026.51
2019-02-24T01:50:11.233Z,1026.53
2019-02-24T01:51:11.229Z,1026.48
2019-02-24T01:52:11.214Z,1026.46
2019-02-24T01:53:11.565Z,1026.50
2019-02-24T01:54:11.566Z,1026.43
2019-02-24T01:55:11.193Z,1026.46
2019-02-24T01:56:11.177Z,1026.43
2019-02-24T01:57:11.550Z,1026.46
2019-02-24T01:58:11.145Z,1026.39
2019-02-24T01:59:11.141Z,1026.45
2019-02-24T02:00:11.129Z,1026.44
2019-02-24T02:01:11.629Z,1026.43
2019-02-24T02:02:11.117Z,1026.44
2019-02-24T02:03:11.119Z,1026.46
2019-02-24T02:04:11.082Z,1026.41
2019-02-24T02:05:11.073Z,1026.43
2019-02-24T02:06:11.067Z,1026.41
2019-02-24T02:07:11.049Z,1026.40
2019-02-24T02:08:11.045Z,1026.40
2019-02-24T02:09:11.062Z,1026.44
2019-02-24T02:10:11.017Z,1026.43
2019-02-24T02:11:11.077Z,1026.43
2019-02-24T02:12:11.022Z,1026.42
2019-02-24T02:13:11.000Z,1026.42
2019-02-24T02:14:11.078Z,1026.48
2019-02-24T02:15:10.967Z,1026.44
2019-02-24T02:16:10.957Z,1026.44
2019-02-24T02:17:11.071Z,1026.42
2019-02-24T02:18:10.943Z,1026.42
2019-02-24T02:19:11.069Z,1026.44
2019-02-24T02:20:10.919Z,1026.40
2019-02-24T02:21:10.909Z,1026.43
2019-02-24T02:22:10.891Z,1026.40
2019-02-24T02:23:10.903Z,1026.45
2019-02-24T02:24:11.071Z,1026.42
2019-02-24T02:25:11.069Z,1026.43
2019-02-24T02:26:10.846Z,1026.39
2019-02-24T02:27:10.834Z,1026.36
2019-02-24T02:28:10.821Z,1026.39
2019-02-24T02:29:10.831Z,1026.38
2019-02-24T02:30:11.060Z,1026.25
2019-02-24T02:31:10.796Z,1026.27
2019-02-24T02:32:10.792Z,1026.33
2019-02-24T02:33:10.773Z,1026.25
2019-02-24T02:34:10.785Z,1026.23
2019-02-24T02:35:10.765Z,1026.25
2019-02-24T02:36:10.759Z,1026.27
2019-02-24T02:37:10.724Z,1026.26
2019-02-24T02:38:10.721Z,1026.28
2019-02-24T02:39:10.727Z,1026.22
2019-02-24T02:40:10.705Z,1026.17
2019-02-24T02:41:10.715Z,1026.24
2019-02-24T02:42:10.674Z,1026.20
2019-02-24T02:43:10.662Z,1026.23
2019-02-24T02:44:10.650Z,1026.27
2019-02-24T02:45:10.661Z,1026.23
2019-02-24T02:46:11.571Z,1026.20
2019-02-24T02:47:10.628Z,1026.17
2019-02-24T02:48:10.611Z,1026.19
2019-02-24T02:49:10.601Z,1026.15
2019-02-24T02:50:10.597Z,1026.15
2019-02-24T02:51:10.578Z,1026.16
2019-02-24T02:52:10.581Z,1026.21
2019-02-24T02:53:10.583Z,1026.20
2019-02-24T02:54:10.549Z,1026.21
2019-02-24T02:55:10.550Z,1026.25
2019-02-24T02:56:10.589Z,1026.27
2019-02-24T02:57:10.509Z,1026.24
2019-02-24T02:58:10.501Z,1026.24
2019-02-24T02:59:10.508Z,1026.23
2019-02-24T03:00:10.481Z,1026.30
2019-02-24T03:01:10.579Z,1026.24
2019-02-24T03:02:10.462Z,1026.23
2019-02-24T03:03:10.459Z,1026.25
2019-02-24T03:04:10.443Z,1026.25
2019-02-24T03:05:10.442Z,1026.24
2019-02-24T03:06:10.414Z,1026.24
2019-02-24T03:07:10.402Z,1026.24
2019-02-24T03:08:10.389Z,1026.27
2019-02-24T03:09:10.390Z,1026.26
2019-02-24T03:10:10.400Z,1026.28
2019-02-24T03:11:10.372Z,1026.29
2019-02-24T03:12:10.378Z,1026.32
2019-02-24T03:13:10.341Z,1026.28
2019-02-24T03:14:10.334Z,1026.30
2019-02-24T03:15:10.322Z,1026.34
2019-02-24T03:16:10.329Z,1026.27
2019-02-24T03:17:10.578Z,1026.34
2019-02-24T03:18:10.286Z,1026.29
2019-02-24T03:19:10.284Z,1026.26
2019-02-24T03:20:10.262Z,1026.25
2019-02-24T03:21:10.256Z,1026.27
2019-02-24T03:22:10.265Z,1026.30
2019-02-24T03:23:10.244Z,1026.33
2019-02-24T03:24:10.247Z,1026.31
2019-02-24T03:25:10.217Z,1026.29
2019-02-24T03:26:10.206Z,1026.32
2019-02-24T03:27:10.194Z,1026.29
2019-02-24T03:28:10.211Z,1026.29
2019-02-24T03:29:10.171Z,1026.30
2019-02-24T03:30:10.199Z,1026.27
2019-02-24T03:31:10.159Z,1026.23
2019-02-24T03:32:10.143Z,1026.28
2019-02-24T03:33:10.138Z,1026.24
2019-02-24T03:34:10.129Z,1026.28
2019-02-24T03:35:10.592Z,1026.27
2019-02-24T03:36:10.090Z,1026.24
2019-02-24T03:37:10.089Z,1026.29
2019-02-24T03:38:10.081Z,1026.25
2019-02-24T03:39:10.070Z,1026.27
2019-02-24T03:40:10.075Z,1026.28
2019-02-24T03:41:10.051Z,1026.27
2019-02-24T03:42:10.034Z,1026.28
2019-02-24T03:43:10.033Z,1026.27
2019-02-24T03:44:10.016Z,1026.24
2019-02-24T03:45:09.999Z,1026.21
2019-02-24T03:46:10.090Z,1026.24
2019-02-24T03:47:09.984Z,1026.28
2019-02-24T03:48:09.966Z,1026.32
2019-02-24T03:49:09.962Z,1026.32
2019-02-24T03:50:09.944Z,1026.36
2019-02-24T03:51:09.933Z,1026.40
2019-02-24T03:52:10.087Z,1026.38
2019-02-24T03:53:09.910Z,1026.39
2019-02-24T03:54:09.899Z,1026.45
2019-02-24T03:55:09.908Z,1026.48
2019-02-24T03:56:09.879Z,1026.45
2019-02-24T03:57:09.878Z,1026.47
2019-02-24T03:58:10.077Z,1026.48
2019-02-24T03:59:15.015Z,1026.47
2019-02-24T04:00:10.856Z,1026.44
2019-02-24T04:01:09.842Z,1026.40
2019-02-24T04:02:09.828Z,1026.45
2019-02-24T04:03:10.077Z,1026.48
2019-02-24T04:04:09.794Z,1026.50
2019-02-24T04:05:09.783Z,1026.47
2019-02-24T04:06:09.789Z,1026.46
2019-02-24T04:07:09.778Z,1026.42
2019-02-24T04:08:09.786Z,1026.43
2019-02-24T04:09:09.740Z,1026.39
2019-02-24T04:10:09.731Z,1026.45
2019-02-24T04:11:09.734Z,1026.39
2019-02-24T04:12:09.711Z,1026.36
2019-02-24T04:13:09.731Z,1026.39
2019-02-24T04:14:09.690Z,1026.40
2019-02-24T04:15:09.679Z,1026.51
2019-02-24T04:16:09.669Z,1026.50
2019-02-24T04:17:09.665Z,1026.51
2019-02-24T04:18:09.659Z,1026.51
2019-02-24T04:19:09.640Z,1026.52
2019-02-24T04:20:09.633Z,1026.55
2019-02-24T04:21:09.611Z,1026.54
2019-02-24T04:22:09.603Z,1026.61
2019-02-24T04:23:10.213Z,1026.62
2019-02-24T04:24:09.590Z,1026.61
2019-02-24T04:25:09.577Z,1026.64
2019-02-24T04:26:09.562Z,1026.59
2019-02-24T04:27:11.680Z,1026.63
2019-02-24T04:28:09.553Z,1026.67
2019-02-24T04:29:09.587Z,1026.63
2019-02-24T04:30:09.544Z,1026.65
2019-02-24T04:31:09.523Z,1026.61
2019-02-24T04:32:09.500Z,1026.59
2019-02-24T04:33:09.504Z,1026.66
2019-02-24T04:34:09.490Z,1026.64
2019-02-24T04:35:09.469Z,1026.62
2019-02-24T04:36:09.607Z,1026.62
2019-02-24T04:37:09.592Z,1026.64
2019-02-24T04:38:09.434Z,1026.63
2019-02-24T04:39:09.445Z,1026.62
2019-02-24T04:40:09.411Z,1026.59
2019-02-24T04:41:09.434Z,1026.60
2019-02-24T04:42:09.399Z,1026.64
2019-02-24T04:43:09.378Z,1026.59
2019-02-24T04:44:09.370Z,1026.66
2019-02-24T04:45:09.376Z,1026.67
2019-02-24T04:46:09.365Z,1026.63
2019-02-24T04:47:09.599Z,1026.66
2019-02-24T04:48:09.327Z,1026.67
2019-02-24T04:49:09.317Z,1026.70
2019-02-24T04:50:09.307Z,1026.72
2019-02-24T04:51:09.305Z,1026.68
2019-02-24T04:52:09.599Z,1026.71
2019-02-24T04:53:09.279Z,1026.70
2019-02-24T04:54:09.261Z,1026.74
2019-02-24T04:55:09.259Z,1026.70
2019-02-24T04:56:09.249Z,1026.70
2019-02-24T04:57:09.599Z,1026.68
2019-02-24T04:58:09.225Z,1026.69
2019-02-24T04:59:09.583Z,1026.72
2019-02-24T05:00:09.203Z,1026.74
2019-02-24T05:01:09.197Z,1026.69
2019-02-24T05:02:09.611Z,1026.64
2019-02-24T05:03:09.180Z,1026.61
2019-02-24T05:04:09.163Z,1026.66
2019-02-24T05:05:09.147Z,1026.67
2019-02-24T05:06:09.139Z,1026.70
2019-02-24T05:07:09.585Z,1026.66
2019-02-24T05:08:09.590Z,1026.69
2019-02-24T05:09:09.113Z,1026.69
2019-02-24T05:10:09.111Z,1026.72
2019-02-24T05:11:09.084Z,1026.70
2019-02-24T05:12:09.076Z,1026.67
2019-02-24T05:13:09.112Z,1026.73
2019-02-24T05:14:09.050Z,1026.78
2019-02-24T05:15:09.044Z,1026.81
2019-02-24T05:16:09.051Z,1026.73
2019-02-24T05:17:09.022Z,1026.73
2019-02-24T05:18:09.025Z,1026.76
2019-02-24T05:19:09.100Z,1026.70
2019-02-24T05:20:08.993Z,1026.70
2019-02-24T05:21:09.013Z,1026.69
2019-02-24T05:22:08.970Z,1026.73
2019-02-24T05:23:08.963Z,1026.72
2019-02-24T05:24:08.952Z,1026.68
2019-02-24T05:25:08.939Z,1026.68
2019-02-24T05:26:08.940Z,1026.71
2019-02-24T05:27:08.926Z,1026.79
2019-02-24T05:28:08.908Z,1026.78
2019-02-24T05:29:08.893Z,1026.83
2019-02-24T05:30:08.886Z,1026.83
2019-02-24T05:31:08.876Z,1026.84
2019-02-24T05:32:09.103Z,1026.84
2019-02-24T05:33:08.858Z,1026.79
2019-02-24T05:34:08.846Z,1026.83
2019-02-24T05:35:08.832Z,1026.80
2019-02-24T05:36:08.835Z,1026.79
2019-02-24T05:37:08.807Z,1026.88
2019-02-24T05:38:08.852Z,1026.83
2019-02-24T05:39:08.798Z,1026.90
2019-02-24T05:40:08.777Z,1026.81
2019-02-24T05:41:08.803Z,1026.81
2019-02-24T05:42:08.764Z,1026.76
2019-02-24T05:43:08.745Z,1026.83
2019-02-24T05:44:09.110Z,1026.78
2019-02-24T05:45:08.724Z,1026.76
2019-02-24T05:46:08.714Z,1026.70
2019-02-24T05:47:08.709Z,1026.67
2019-02-24T05:48:08.701Z,1026.65
2019-02-24T05:49:09.109Z,1026.66
2019-02-24T05:50:09.114Z,1026.67
2019-02-24T05:51:08.666Z,1026.63
2019-02-24T05:52:08.652Z,1026.56
2019-02-24T05:53:08.639Z,1026.57
2019-02-24T05:54:08.665Z,1026.58
2019-02-24T05:55:08.620Z,1026.57
2019-02-24T05:56:08.603Z,1026.55
2019-02-24T05:57:08.598Z,1026.49
2019-02-24T05:58:08.586Z,1026.53
2019-02-24T05:59:08.605Z,1026.53
2019-02-24T06:00:08.565Z,1026.50
2019-02-24T06:01:08.552Z,1026.42
2019-02-24T06:02:08.552Z,1026.45
2019-02-24T06:03:08.535Z,1026.45
2019-02-24T06:04:08.522Z,1026.41
2019-02-24T06:05:08.627Z,1026.41
2019-02-24T06:06:08.518Z,1026.43
2019-02-24T06:07:08.498Z,1026.51
2019-02-24T06:08:08.477Z,1026.50
2019-02-24T06:09:08.472Z,1026.44
2019-02-24T06:10:08.465Z,1026.44
2019-02-24T06:11:08.561Z,1026.42
2019-02-24T06:12:08.444Z,1026.48
2019-02-24T06:13:08.624Z,1026.43
2019-02-24T06:14:08.423Z,1026.42
2019-02-24T06:15:08.429Z,1026.45
2019-02-24T06:16:08.425Z,1026.42
2019-02-24T06:17:08.389Z,1026.46
2019-02-24T06:18:08.622Z,1026.44
2019-02-24T06:19:08.387Z,1026.48
2019-02-24T06:20:08.363Z,1026.46
2019-02-24T06:21:08.472Z,1026.46
2019-02-24T06:22:08.344Z,1026.49
2019-02-24T06:23:08.360Z,1026.49
2019-02-24T06:24:08.615Z,1026.52
2019-02-24T06:25:08.296Z,1026.46
2019-02-24T06:26:08.627Z,1026.50
2019-02-24T06:27:08.289Z,1026.44
2019-02-24T06:28:08.294Z,1026.47
2019-02-24T06:29:08.268Z,1026.49
2019-02-24T06:30:08.277Z,1026.50
2019-02-24T06:31:08.248Z,1026.50
2019-02-24T06:32:08.231Z,1026.49
2019-02-24T06:33:08.220Z,1026.48
2019-02-24T06:34:08.230Z,1026.54
2019-02-24T06:35:08.204Z,1026.53
2019-02-24T06:36:08.606Z,1026.53
2019-02-24T06:37:08.185Z,1026.45
2019-02-24T06:38:08.199Z,1026.54
2019-02-24T06:39:08.155Z,1026.55
2019-02-24T06:40:08.162Z,1026.55
2019-02-24T06:41:08.136Z,1026.51
2019-02-24T06:42:08.138Z,1026.59
2019-02-24T06:43:08.123Z,1026.63
2019-02-24T06:44:08.125Z,1026.60
2019-02-24T06:45:08.091Z,1026.61
2019-02-24T06:46:08.097Z,1026.61
2019-02-24T06:47:08.065Z,1026.60
2019-02-24T06:48:08.063Z,1026.57
2019-02-24T06:49:08.049Z,1026.58
2019-02-24T06:50:08.044Z,1026.66
2019-02-24T06:51:08.033Z,1026.62
2019-02-24T06:52:08.024Z,1026.65
2019-02-24T06:53:08.120Z,1026.69
2019-02-24T06:54:07.997Z,1026.68
2019-02-24T06:55:08.121Z,1026.70
2019-02-24T06:56:07.976Z,1026.70
2019-02-24T06:57:07.956Z,1026.69
2019-02-24T06:58:07.947Z,1026.69
2019-02-24T06:59:07.956Z,1026.69
2019-02-24T07:00:14.156Z,1026.65
2019-02-24T07:01:08.925Z,1026.68
2019-02-24T07:02:07.902Z,1026.67
2019-02-24T07:03:07.901Z,1026.61
2019-02-24T07:04:07.894Z,1026.62
2019-02-24T07:05:08.117Z,1026.58
2019-02-24T07:06:07.859Z,1026.60
2019-02-24T07:07:07.864Z,1026.58
2019-02-24T07:08:07.842Z,1026.58
2019-02-24T07:09:07.843Z,1026.59
2019-02-24T07:10:07.822Z,1026.57
2019-02-24T07:11:08.123Z,1026.56
2019-02-24T07:12:07.796Z,1026.52
2019-02-24T07:13:07.793Z,1026.51
2019-02-24T07:14:07.778Z,1026.52
2019-02-24T07:15:07.764Z,1026.56
2019-02-24T07:16:07.782Z,1026.53
2019-02-24T07:17:07.740Z,1026.54
2019-02-24T07:18:08.127Z,1026.49
2019-02-24T07:19:07.719Z,1026.52
2019-02-24T07:20:07.708Z,1026.55
2019-02-24T07:21:07.724Z,1026.50
2019-02-24T07:22:07.710Z,1026.52
2019-02-24T07:23:07.683Z,1026.55
2019-02-24T07:24:07.683Z,1026.54
2019-02-24T07:25:07.661Z,1026.50
2019-02-24T07:26:07.649Z,1026.50
2019-02-24T07:27:08.134Z,1026.46
2019-02-24T07:28:07.635Z,1026.50
2019-02-24T07:29:07.621Z,1026.52
2019-02-24T07:30:07.627Z,1026.50
2019-02-24T07:31:07.588Z,1026.46
2019-02-24T07:32:07.584Z,1026.48
2019-02-24T07:33:07.587Z,1026.43
2019-02-24T07:34:07.578Z,1026.46
2019-02-24T07:35:07.556Z,1026.46
2019-02-24T07:36:08.102Z,1026.46
2019-02-24T07:37:12.951Z,1026.40
2019-02-24T07:38:08.528Z,1026.52
2019-02-24T07:39:07.541Z,1026.46
2019-02-24T07:40:07.535Z,1026.52
2019-02-24T07:41:07.499Z,1026.54
2019-02-24T07:42:07.485Z,1026.54
2019-02-24T07:43:07.486Z,1026.61
2019-02-24T07:44:07.462Z,1026.64
2019-02-24T07:45:07.646Z,1026.67
2019-02-24T07:46:07.444Z,1026.66
2019-02-24T07:47:07.445Z,1026.76
2019-02-24T07:48:07.644Z,1026.74
2019-02-24T07:49:07.401Z,1026.74
2019-02-24T07:50:07.389Z,1026.81
2019-02-24T07:51:07.378Z,1026.79
2019-02-24T07:52:07.379Z,1026.81
2019-02-24T07:53:07.372Z,1026.84
2019-02-24T07:54:07.354Z,1026.87
2019-02-24T07:55:07.635Z,1026.88
2019-02-24T07:56:07.338Z,1026.92
2019-02-24T07:57:07.631Z,1026.91
2019-02-24T07:58:07.318Z,1026.91
2019-02-24T07:59:07.296Z,1026.99
2019-02-24T08:00:07.285Z,1026.97
2019-02-24T08:01:07.270Z,1027.01
2019-02-24T08:02:07.626Z,1027.07
2019-02-24T08:03:07.253Z,1027.01
2019-02-24T08:04:07.281Z,1026.97
2019-02-24T08:05:07.246Z,1027.02
2019-02-24T08:06:07.228Z,1027.02
2019-02-24T08:07:07.645Z,1027.05
2019-02-24T08:08:15.899Z,1026.97
2019-02-24T08:09:08.651Z,1026.99
2019-02-24T08:10:07.188Z,1027.07
2019-02-24T08:11:07.183Z,1027.04
2019-02-24T08:12:07.163Z,1027.07
2019-02-24T08:13:07.159Z,1027.09
2019-02-24T08:14:07.171Z,1027.13
2019-02-24T08:15:07.132Z,1027.14
2019-02-24T08:16:07.146Z,1027.18
2019-02-24T08:17:07.135Z,1027.17
2019-02-24T08:18:07.094Z,1027.26
2019-02-24T08:19:07.088Z,1027.21
2019-02-24T08:20:07.079Z,1027.22
2019-02-24T08:21:07.065Z,1027.25
2019-02-24T08:22:07.075Z,1027.25
2019-02-24T08:23:07.051Z,1027.31
2019-02-24T08:24:07.040Z,1027.35
2019-02-24T08:25:07.019Z,1027.34
2019-02-24T08:26:07.011Z,1027.37
2019-02-24T08:27:07.139Z,1027.37
2019-02-24T08:28:06.974Z,1027.34
2019-02-24T08:29:06.979Z,1027.36
2019-02-24T08:30:06.959Z,1027.38
2019-02-24T08:31:06.977Z,1027.40
2019-02-24T08:32:06.948Z,1027.47
2019-02-24T08:33:06.936Z,1027.49
2019-02-24T08:34:06.931Z,1027.47
2019-02-24T08:35:06.906Z,1027.49
2019-02-24T08:36:06.910Z,1027.51
2019-02-24T08:37:06.883Z,1027.51
2019-02-24T08:38:07.139Z,1027.51
2019-02-24T08:39:06.885Z,1027.60
2019-02-24T08:40:06.891Z,1027.53
2019-02-24T08:41:06.850Z,1027.55
2019-02-24T08:42:06.851Z,1027.58
2019-02-24T08:43:06.815Z,1027.61
2019-02-24T08:44:06.805Z,1027.72
2019-02-24T08:45:06.811Z,1027.64
2019-02-24T08:46:06.788Z,1027.72
2019-02-24T08:47:06.776Z,1027.67
2019-02-24T08:48:07.158Z,1027.65
2019-02-24T08:49:06.770Z,1027.65
2019-02-24T08:50:06.738Z,1027.65
2019-02-24T08:51:06.725Z,1027.63
2019-02-24T08:52:06.738Z,1027.64
2019-02-24T08:53:06.719Z,1027.72
2019-02-24T08:54:07.161Z,1027.71
2019-02-24T08:55:06.687Z,1027.72
2019-02-24T08:56:06.685Z,1027.75
2019-02-24T08:57:06.669Z,1027.73
2019-02-24T08:58:06.677Z,1027.70
2019-02-24T08:59:06.689Z,1027.72
2019-02-24T09:00:07.155Z,1027.73
2019-02-24T09:01:06.627Z,1027.72
2019-02-24T09:02:06.606Z,1027.72
2019-02-24T09:03:06.598Z,1027.70
2019-02-24T09:04:06.595Z,1027.72
2019-02-24T09:05:06.603Z,1027.75
2019-02-24T09:06:06.600Z,1027.68
2019-02-24T09:07:08.507Z,1027.74
2019-02-24T09:08:06.559Z,1027.72
2019-02-24T09:09:06.551Z,1027.76
2019-02-24T09:10:06.641Z,1027.69
2019-02-24T09:11:06.672Z,1027.70
2019-02-24T09:12:06.521Z,1027.68
2019-02-24T09:13:06.505Z,1027.73
2019-02-24T09:14:06.507Z,1027.72
2019-02-24T09:15:06.489Z,1027.67
2019-02-24T09:16:06.490Z,1027.74
2019-02-24T09:17:06.661Z,1027.69
2019-02-24T09:18:06.463Z,1027.76
2019-02-24T09:19:06.445Z,1027.72
2019-02-24T09:20:06.459Z,1027.69
2019-02-24T09:21:06.423Z,1027.66
2019-02-24T09:22:06.412Z,1027.67
2019-02-24T09:23:06.429Z,1027.68
2019-02-24T09:24:06.384Z,1027.66
2019-02-24T09:25:06.651Z,1027.61
2019-02-24T09:26:06.355Z,1027.68
2019-02-24T09:27:06.651Z,1027.59
2019-02-24T09:28:06.351Z,1027.58
2019-02-24T09:29:06.335Z,1027.52
2019-02-24T09:30:06.316Z,1027.57
2019-02-24T09:31:06.303Z,1027.52
2019-02-24T09:32:06.307Z,1027.50
2019-02-24T09:33:06.289Z,1027.53
2019-02-24T09:34:06.264Z,1027.48
2019-02-24T09:35:06.675Z,1027.53
2019-02-24T09:36:06.257Z,1027.54
2019-02-24T09:37:06.251Z,1027.58
2019-02-24T09:38:06.653Z,1027.58
2019-02-24T09:39:06.214Z,1027.57
2019-02-24T09:40:06.210Z,1027.60
2019-02-24T09:41:07.151Z,1027.68
2019-02-24T09:42:06.198Z,1027.58
2019-02-24T09:43:06.191Z,1027.66
2019-02-24T09:44:06.162Z,1027.64
2019-02-24T09:45:06.148Z,1027.64
2019-02-24T09:46:06.145Z,1027.64
2019-02-24T09:47:06.136Z,1027.70
2019-02-24T09:48:06.137Z,1027.71
2019-02-24T09:49:06.136Z,1027.69
2019-02-24T09:50:06.121Z,1027.79
2019-02-24T09:51:06.097Z,1027.79
2019-02-24T09:52:06.086Z,1027.73
2019-02-24T09:53:06.075Z,1027.77
2019-02-24T09:54:06.158Z,1027.79
2019-02-24T09:55:06.072Z,1027.79
2019-02-24T09:56:06.044Z,1027.78
2019-02-24T09:57:06.033Z,1027.79
2019-02-24T09:58:06.023Z,1027.86
2019-02-24T09:59:06.064Z,1027.83
2019-02-24T10:00:06.000Z,1027.85
2019-02-24T10:01:10.733Z,1027.83
2019-02-24T10:02:06.980Z,1027.86
2019-02-24T10:03:05.958Z,1027.85
2019-02-24T10:04:05.964Z,1027.89
2019-02-24T10:05:05.953Z,1027.87
2019-02-24T10:06:06.162Z,1027.85
2019-02-24T10:07:05.916Z,1027.87
2019-02-24T10:08:08.030Z,1027.90
2019-02-24T10:09:05.893Z,1027.89
2019-02-24T10:10:05.882Z,1027.94
2019-02-24T10:11:05.952Z,1027.91
2019-02-24T10:12:05.872Z,1027.92
2019-02-24T10:13:05.858Z,1027.94
2019-02-24T10:14:05.851Z,1027.86
2019-02-24T10:15:05.838Z,1027.89
2019-02-24T10:16:06.169Z,1027.93
2019-02-24T10:17:06.176Z,1027.86
2019-02-24T10:18:05.798Z,1027.92
2019-02-24T10:19:05.785Z,1027.90
2019-02-24T10:20:05.776Z,1027.87
2019-02-24T10:21:05.766Z,1027.92
2019-02-24T10:22:05.781Z,1027.85
2019-02-24T10:23:05.752Z,1027.86
2019-02-24T10:24:05.732Z,1027.86
2019-02-24T10:25:06.167Z,1027.90
2019-02-24T10:26:05.712Z,1027.87
2019-02-24T10:27:05.709Z,1027.81
2019-02-24T10:28:05.724Z,1027.79
2019-02-24T10:29:05.682Z,1027.83
2019-02-24T10:30:05.682Z,1027.83
2019-02-24T10:31:05.658Z,1027.81
2019-02-24T10:32:05.647Z,1027.80
2019-02-24T10:33:05.686Z,1027.83
2019-02-24T10:34:07.570Z,1027.79
2019-02-24T10:35:05.630Z,1027.82
2019-02-24T10:36:05.616Z,1027.81
2019-02-24T10:37:05.605Z,1027.82
2019-02-24T10:38:05.593Z,1027.83
2019-02-24T10:39:05.595Z,1027.88
2019-02-24T10:40:05.603Z,1027.81
2019-02-24T10:41:05.552Z,1027.89
2019-02-24T10:42:05.540Z,1027.86
2019-02-24T10:43:05.533Z,1027.81
2019-02-24T10:44:05.516Z,1027.81
2019-02-24T10:45:05.526Z,1027.76
2019-02-24T10:46:05.505Z,1027.83
2019-02-24T10:47:05.487Z,1027.79
2019-02-24T10:48:13.832Z,1027.79
2019-02-24T10:49:06.468Z,1027.76
2019-02-24T10:50:05.689Z,1027.79
2019-02-24T10:51:05.443Z,1027.78
2019-02-24T10:52:05.430Z,1027.76
2019-02-24T10:53:05.424Z,1027.74
2019-02-24T10:54:05.411Z,1027.77
2019-02-24T10:55:05.683Z,1027.75
2019-02-24T10:56:05.385Z,1027.78
2019-02-24T10:57:05.391Z,1027.73
2019-02-24T10:58:05.371Z,1027.75
2019-02-24T10:59:05.358Z,1027.72
2019-02-24T11:00:05.671Z,1027.83
2019-02-24T11:01:05.690Z,1027.71
2019-02-24T11:02:05.332Z,1027.70
2019-02-24T11:03:05.318Z,1027.74
2019-02-24T11:04:05.305Z,1027.79
2019-02-24T11:05:05.296Z,1027.71
2019-02-24T11:06:05.677Z,1027.74
2019-02-24T11:07:05.683Z,1027.75
2019-02-24T11:08:05.291Z,1027.67
2019-02-24T11:09:05.283Z,1027.63
2019-02-24T11:10:05.254Z,1027.63
2019-02-24T11:11:05.262Z,1027.62
2019-02-24T11:12:05.244Z,1027.68
2019-02-24T11:13:05.208Z,1027.70
2019-02-24T11:14:05.205Z,1027.69
2019-02-24T11:15:05.193Z,1027.69
2019-02-24T11:16:05.173Z,1027.68
2019-02-24T11:17:05.686Z,1027.72
2019-02-24T11:18:05.158Z,1027.74
2019-02-24T11:19:05.150Z,1027.68
2019-02-24T11:20:05.134Z,1027.72
2019-02-24T11:21:05.148Z,1027.67
2019-02-24T11:22:05.118Z,1027.64
2019-02-24T11:23:05.113Z,1027.75
2019-02-24T11:24:05.093Z,1027.72
2019-02-24T11:25:05.077Z,1027.71
2019-02-24T11:26:05.071Z,1027.73
2019-02-24T11:27:05.068Z,1027.73
2019-02-24T11:28:05.205Z,1027.79
2019-02-24T11:29:05.055Z,1027.76
2019-02-24T11:30:05.042Z,1027.79
2019-02-24T11:31:05.037Z,1027.73
2019-02-24T11:32:05.010Z,1027.81
2019-02-24T11:33:05.027Z,1027.79
2019-02-24T11:34:05.175Z,1027.79
2019-02-24T11:35:04.972Z,1027.74
2019-02-24T11:36:04.966Z,1027.70
2019-02-24T11:37:04.951Z,1027.71
2019-02-24T11:38:05.013Z,1027.68
2019-02-24T11:39:04.954Z,1027.70
2019-02-24T11:40:04.940Z,1027.72
2019-02-24T11:41:04.922Z,1027.70
2019-02-24T11:42:04.908Z,1027.75
2019-02-24T11:43:04.899Z,1027.72
2019-02-24T11:44:04.901Z,1027.69
2019-02-24T11:45:05.661Z,1027.72
2019-02-24T11:46:04.852Z,1027.71
2019-02-24T11:47:04.849Z,1027.76
2019-02-24T11:48:04.836Z,1027.75
2019-02-24T11:49:04.828Z,1027.67
2019-02-24T11:50:04.806Z,1027.70
2019-02-24T11:51:05.199Z,1027.67
2019-02-24T11:52:04.811Z,1027.69
2019-02-24T11:53:05.219Z,1027.70
2019-02-24T11:54:04.767Z,1027.72
2019-02-24T11:55:04.788Z,1027.64
2019-02-24T11:56:04.745Z,1027.63
2019-02-24T11:57:04.733Z,1027.70
2019-02-24T11:58:04.727Z,1027.65
2019-02-24T11:59:05.199Z,1027.69
2019-02-24T12:00:04.723Z,1027.63
2019-02-24T12:01:04.704Z,1027.67
2019-02-24T12:02:04.692Z,1027.64
2019-02-24T12:03:04.691Z,1027.63
2019-02-24T12:04:04.673Z,1027.60
2019-02-24T12:05:04.652Z,1027.67